Time;durP1;ratioP1;P1;durP2;ratioP2;P2;SDS_P1;SDS_P2;PMS_P1;PMS_P2;Temp;Humidity;BMP_temperature;BMP_pressure;BME280_temperature;BME280_humidity;BME280_pressure;Samples;Min_cycle;Max_cycle;Signal;HPM_P1;HPM_P2
2022/07/17 00:00:20;;;;;;;10.55;4.03;;;;;;;;;;5032378;28;20032;-66
2022/07/17 00:02:47;;;;;;;10.20;3.80;;;;;;;;;;5041434;28;20031;-66
2022/07/17 00:05:14;;;;;;;10.70;4.18;;;;;;;;;;5042137;28;20032;-66
2022/07/17 00:07:41;;;;;;;10.98;4.32;;;;;;;;;;5024710;28;20036;-67
2022/07/17 00:10:07;;;;;;;9.02;4.00;;;;;;;;;;5017526;28;20556;-67
2022/07/17 00:12:33;;;;;;;9.93;4.13;;;;;;;;;;5050393;28;20115;-67
2022/07/17 00:14:59;;;;;;;9.05;4.00;;;;;;;;;;5031544;28;20856;-66
2022/07/17 00:17:34;;;;;;;9.60;4.47;;;;;;;;;;5042332;28;20020;-67
2022/07/17 00:20:00;;;;;;;11.32;4.45;;;;;;;;;;5043894;28;21107;-66
2022/07/17 00:22:27;;;;;;;11.00;4.22;;;;;;;;;;5043913;28;20036;-65
2022/07/17 00:24:53;;;;;;;10.68;4.60;;;;;;;;;;5042357;28;20685;-66
2022/07/17 00:27:19;;;;;;;12.35;4.57;;;;;;;;;;5028161;28;20119;-66
2022/07/17 00:29:49;;;;;;;9.65;4.50;;;;;;;;;;5046152;28;20031;-66
2022/07/17 00:32:15;;;;;;;10.57;4.50;;;;;;;;;;5048497;28;20021;-65
2022/07/17 00:34:41;;;;;;;10.38;4.75;;;;;;;;;;5047649;28;20472;-66
2022/07/17 00:37:07;;;;;;;8.50;4.75;;;;;;;;;;5050159;28;20513;-66
2022/07/17 00:39:34;;;;;;;10.38;5.22;;;;;;;;;;5043497;28;20036;-66
2022/07/17 00:42:00;;;;;;;13.88;5.10;;;;;;;;;;5024825;28;20848;-66
2022/07/17 00:44:27;;;;;;;12.18;4.88;;;;;;;;;;5048352;28;20067;-66
2022/07/17 00:46:53;;;;;;;10.85;5.70;;;;;;;;;;5040183;28;20131;-66
2022/07/17 00:49:20;;;;;;;14.23;4.60;;;;;;;;;;5048231;28;20086;-66
2022/07/17 00:51:46;;;;;;;15.90;5.68;;;;;;;;;;5042684;28;20037;-66
2022/07/17 00:54:12;;;;;;;12.52;5.38;;;;;;;;;;5046586;28;20153;-66
2022/07/17 00:56:40;;;;;;;11.70;4.85;;;;;;;;;;5043514;28;20227;-66
2022/07/17 00:59:07;;;;;;;12.68;4.85;;;;;;;;;;5046260;28;20109;-66
2022/07/17 01:01:33;;;;;;;11.98;5.25;;;;;;;;;;5043659;28;20449;-66
2022/07/17 01:03:59;;;;;;;13.02;4.95;;;;;;;;;;5045049;28;20035;-66
2022/07/17 01:06:26;;;;;;;10.88;4.82;;;;;;;;;;5045260;28;20108;-66
2022/07/17 01:08:52;;;;;;;12.38;5.13;;;;;;;;;;5042887;28;20490;-66
2022/07/17 01:11:18;;;;;;;12.90;4.82;;;;;;;;;;5041578;28;20339;-66
2022/07/17 01:13:44;;;;;;;13.43;5.10;;;;;;;;;;5041877;28;20115;-67
2022/07/17 01:16:10;;;;;;;12.90;4.70;;;;;;;;;;5043208;28;20047;-66
2022/07/17 01:18:37;;;;;;;12.18;4.75;;;;;;;;;;5043220;28;20113;-66
2022/07/17 01:21:04;;;;;;;12.95;4.45;;;;;;;;;;5040578;28;20033;-66
2022/07/17 01:23:30;;;;;;;12.25;4.53;;;;;;;;;;5045581;28;20066;-66
2022/07/17 01:25:56;;;;;;;11.40;4.60;;;;;;;;;;5040731;28;20039;-67
2022/07/17 01:28:22;;;;;;;11.85;4.50;;;;;;;;;;5043775;28;20032;-65
2022/07/17 01:30:49;;;;;;;10.55;4.50;;;;;;;;;;5044131;28;20111;-65
2022/07/17 01:33:16;;;;;;;10.60;4.70;;;;;;;;;;5042934;28;20055;-66
2022/07/17 01:35:42;;;;;;;9.73;4.90;;;;;;;;;;5035754;28;20028;-64
2022/07/17 01:38:08;;;;;;;9.77;4.00;;;;;;;;;;5047061;28;20123;-64
2022/07/17 01:40:34;;;;;;;9.52;3.80;;;;;;;;;;5042997;28;20027;-65
2022/07/17 01:43:01;;;;;;;8.52;4.22;;;;;;;;;;5043848;28;20055;-66
2022/07/17 01:45:27;;;;;;;10.52;4.40;;;;;;;;;;5044659;28;20359;-66
2022/07/17 01:47:53;;;;;;;8.45;4.47;;;;;;;;;;5039148;28;20448;-66
2022/07/17 01:50:19;;;;;;;11.05;4.55;;;;;;;;;;5044543;28;20037;-66
2022/07/17 01:52:46;;;;;;;9.80;4.63;;;;;;;;;;5044522;28;20240;-66
2022/07/17 01:55:14;;;;;;;11.45;4.90;;;;;;;;;;5047719;28;20012;-66
2022/07/17 01:57:40;;;;;;;11.30;5.60;;;;;;;;;;5047134;28;20460;-66
2022/07/17 02:00:08;;;;;;;10.23;4.20;;;;;;;;;;5047681;28;20055;-66
2022/07/17 02:02:34;;;;;;;8.80;4.20;;;;;;;;;;5049869;28;20032;-64
2022/07/17 02:05:00;;;;;;;10.13;4.65;;;;;;;;;;5049021;28;21431;-65
2022/07/17 02:07:26;;;;;;;10.30;4.68;;;;;;;;;;5049634;28;20113;-65
2022/07/17 02:09:53;;;;;;;8.10;3.80;;;;;;;;;;5024207;28;20059;-66
2022/07/17 02:12:19;;;;;;;8.40;4.05;;;;;;;;;;5050555;28;20466;-65
2022/07/17 02:14:45;;;;;;;10.15;4.57;;;;;;;;;;5047885;28;20109;-65
2022/07/17 02:17:11;;;;;;;8.90;4.30;;;;;;;;;;5051847;28;20036;-66
2022/07/17 02:19:37;;;;;;;10.50;4.75;;;;;;;;;;5054805;28;20466;-65
2022/07/17 02:22:04;;;;;;;11.85;4.68;;;;;;;;;;5028719;28;20036;-65
2022/07/17 02:24:30;;;;;;;9.65;4.38;;;;;;;;;;5032431;28;20034;-65
2022/07/17 02:26:56;;;;;;;10.32;4.50;;;;;;;;;;5032665;28;20068;-65
2022/07/17 02:29:22;;;;;;;13.57;4.07;;;;;;;;;;5051010;28;20053;-65
2022/07/17 02:31:48;;;;;;;10.65;4.55;;;;;;;;;;5051998;28;20506;-65
2022/07/17 02:34:14;;;;;;;10.18;4.93;;;;;;;;;;5054759;28;20023;-65
2022/07/17 02:36:40;;;;;;;11.98;4.70;;;;;;;;;;5053888;28;20031;-65
2022/07/17 02:39:06;;;;;;;10.00;4.80;;;;;;;;;;5031017;28;20044;-65
2022/07/17 02:41:33;;;;;;;9.70;4.50;;;;;;;;;;5028155;28;20474;-65
2022/07/17 02:43:59;;;;;;;16.48;4.88;;;;;;;;;;5044929;28;20024;-65
2022/07/17 02:46:25;;;;;;;8.88;4.38;;;;;;;;;;5049917;28;20433;-65
2022/07/17 02:48:51;;;;;;;9.55;4.30;;;;;;;;;;5048186;28;20056;-65
2022/07/17 02:51:17;;;;;;;9.50;4.47;;;;;;;;;;5048879;28;20470;-65
2022/07/17 02:53:43;;;;;;;10.70;4.15;;;;;;;;;;5030086;28;20416;-65
2022/07/17 02:56:09;;;;;;;10.13;4.88;;;;;;;;;;5053482;28;20028;-65
2022/07/17 02:58:35;;;;;;;11.10;4.47;;;;;;;;;;5054241;28;20028;-65
2022/07/17 03:01:01;;;;;;;10.15;3.97;;;;;;;;;;5047698;28;20613;-66
2022/07/17 03:03:27;;;;;;;10.50;4.50;;;;;;;;;;5048360;28;20032;-65
2022/07/17 03:05:54;;;;;;;7.90;4.03;;;;;;;;;;5049499;28;20127;-65
2022/07/17 03:08:20;;;;;;;8.60;4.18;;;;;;;;;;5033716;28;20111;-65
2022/07/17 03:10:46;;;;;;;12.43;3.95;;;;;;;;;;5031555;28;20751;-65
2022/07/17 03:13:12;;;;;;;11.75;5.18;;;;;;;;;;5052753;28;20012;-65
2022/07/17 03:15:38;;;;;;;11.98;4.43;;;;;;;;;;5033875;28;20038;-65
2022/07/17 03:18:04;;;;;;;9.18;3.90;;;;;;;;;;5049465;28;20484;-65
2022/07/17 03:20:30;;;;;;;10.18;4.47;;;;;;;;;;5049007;28;20055;-65
2022/07/17 03:22:56;;;;;;;10.18;4.70;;;;;;;;;;5044672;28;20566;-66
2022/07/17 03:25:22;;;;;;;9.30;3.90;;;;;;;;;;5052128;28;20074;-65
2022/07/17 03:27:48;;;;;;;9.40;4.13;;;;;;;;;;5047339;28;20032;-65
2022/07/17 03:30:15;;;;;;;11.15;4.10;;;;;;;;;;5030854;28;20025;-65
2022/07/17 03:32:41;;;;;;;8.35;4.13;;;;;;;;;;5030546;28;20024;-65
2022/07/17 03:35:08;;;;;;;9.80;4.40;;;;;;;;;;5034636;28;20107;-65
2022/07/17 03:37:34;;;;;;;10.18;4.22;;;;;;;;;;5052524;28;20321;-66
2022/07/17 03:40:00;;;;;;;7.88;3.67;;;;;;;;;;5027666;28;21813;-65
2022/07/17 03:42:26;;;;;;;9.90;4.10;;;;;;;;;;5048217;28;20047;-65
2022/07/17 03:44:52;;;;;;;10.65;4.20;;;;;;;;;;5047078;28;21021;-65
2022/07/17 03:47:18;;;;;;;10.05;4.40;;;;;;;;;;5029858;28;20076;-65
2022/07/17 03:49:44;;;;;;;10.57;4.25;;;;;;;;;;5047512;28;20048;-65
2022/07/17 03:52:10;;;;;;;8.40;4.00;;;;;;;;;;5050833;28;20025;-65
2022/07/17 03:54:37;;;;;;;9.82;4.10;;;;;;;;;;5046392;28;20320;-66
2022/07/17 03:57:03;;;;;;;9.80;4.30;;;;;;;;;;5043578;28;20025;-65
2022/07/17 03:59:29;;;;;;;11.23;4.00;;;;;;;;;;5047644;28;20043;-65
2022/07/17 04:01:56;;;;;;;8.70;4.10;;;;;;;;;;5044458;28;20054;-65
2022/07/17 04:04:22;;;;;;;9.40;4.20;;;;;;;;;;5030286;28;20032;-65
2022/07/17 04:06:48;;;;;;;11.82;5.03;;;;;;;;;;5046905;28;20043;-65
2022/07/17 04:09:14;;;;;;;10.05;4.57;;;;;;;;;;5047127;28;20161;-65
2022/07/17 04:11:40;;;;;;;11.48;4.47;;;;;;;;;;5050525;28;20028;-65
2022/07/17 04:14:06;;;;;;;10.18;4.38;;;;;;;;;;5029673;28;20482;-65
2022/07/17 04:16:32;;;;;;;9.85;4.30;;;;;;;;;;5044743;28;20037;-65
2022/07/17 04:18:58;;;;;;;10.15;4.60;;;;;;;;;;5021423;28;20197;-66
2022/07/17 04:21:24;;;;;;;11.25;4.53;;;;;;;;;;5026329;28;20436;-65
2022/07/17 04:23:50;;;;;;;14.02;4.75;;;;;;;;;;5045588;28;20033;-65
2022/07/17 04:26:17;;;;;;;14.48;5.10;;;;;;;;;;5049196;28;20156;-65
2022/07/17 04:28:43;;;;;;;16.27;5.20;;;;;;;;;;5044330;28;20498;-65
2022/07/17 04:31:09;;;;;;;11.48;4.85;;;;;;;;;;5045983;28;20141;-65
2022/07/17 04:33:35;;;;;;;11.25;4.88;;;;;;;;;;5044832;28;20357;-65
2022/07/17 04:36:01;;;;;;;11.88;5.03;;;;;;;;;;5042090;28;20362;-65
2022/07/17 04:38:27;;;;;;;12.68;5.05;;;;;;;;;;5057034;28;20118;-65
2022/07/17 04:40:53;;;;;;;11.45;4.85;;;;;;;;;;5041518;28;20362;-65
2022/07/17 04:43:19;;;;;;;11.32;5.22;;;;;;;;;;5030938;28;20422;-65
2022/07/17 04:45:46;;;;;;;10.52;5.22;;;;;;;;;;5047369;28;20657;-65
2022/07/17 04:48:12;;;;;;;13.20;5.00;;;;;;;;;;5046829;28;20032;-66
2022/07/17 04:50:38;;;;;;;11.38;5.00;;;;;;;;;;5055953;28;20028;-64
2022/07/17 04:53:04;;;;;;;10.05;5.10;;;;;;;;;;5028191;28;20456;-64
2022/07/17 04:55:30;;;;;;;12.23;4.68;;;;;;;;;;5052193;28;20028;-64
2022/07/17 04:57:57;;;;;;;12.35;5.50;;;;;;;;;;5026851;28;20757;-64
2022/07/17 05:00:23;;;;;;;12.70;5.22;;;;;;;;;;5052450;28;20032;-64
2022/07/17 05:02:49;;;;;;;14.00;5.32;;;;;;;;;;5047122;28;20060;-63
2022/07/17 05:05:15;;;;;;;11.75;5.10;;;;;;;;;;5044757;28;20036;-63
2022/07/17 05:07:41;;;;;;;11.85;5.10;;;;;;;;;;5046117;28;20181;-63
2022/07/17 05:10:08;;;;;;;10.88;5.60;;;;;;;;;;5049334;28;20456;-64
2022/07/17 05:12:35;;;;;;;11.25;5.45;;;;;;;;;;5031512;28;20025;-64
2022/07/17 05:15:01;;;;;;;11.02;5.25;;;;;;;;;;5048907;28;20075;-64
2022/07/17 05:17:27;;;;;;;10.13;4.90;;;;;;;;;;5046986;28;20131;-64
2022/07/17 05:19:53;;;;;;;9.57;5.22;;;;;;;;;;5045276;28;20029;-65
2022/07/17 05:22:19;;;;;;;11.93;5.35;;;;;;;;;;5028085;28;20125;-64
2022/07/17 05:24:45;;;;;;;9.48;5.32;;;;;;;;;;5042233;28;20032;-64
2022/07/17 05:27:11;;;;;;;9.55;5.20;;;;;;;;;;5047942;28;20484;-64
2022/07/17 05:29:37;;;;;;;14.55;5.20;;;;;;;;;;5049056;28;20039;-63
2022/07/17 05:32:04;;;;;;;14.07;5.35;;;;;;;;;;5022009;28;20465;-64
2022/07/17 05:34:30;;;;;;;11.77;5.40;;;;;;;;;;5046483;28;20400;-63
2022/07/17 05:37:01;;;;;;;9.85;5.43;;;;;;;;;;5046905;28;20037;-66
2022/07/17 05:39:27;;;;;;;13.80;5.45;;;;;;;;;;5052941;28;20568;-64
2022/07/17 05:41:53;;;;;;;11.27;5.72;;;;;;;;;;5043836;28;20262;-64
2022/07/17 05:44:19;;;;;;;10.82;5.40;;;;;;;;;;5049382;28;20017;-64
2022/07/17 05:46:45;;;;;;;12.13;5.38;;;;;;;;;;5049150;28;20025;-64
2022/07/17 05:49:11;;;;;;;14.35;6.30;;;;;;;;;;5052659;28;20419;-64
2022/07/17 05:51:37;;;;;;;13.85;5.63;;;;;;;;;;5052243;28;20085;-64
2022/07/17 05:54:03;;;;;;;11.63;5.80;;;;;;;;;;5047797;28;20119;-64
2022/07/17 05:56:30;;;;;;;13.13;5.45;;;;;;;;;;5047729;28;20781;-64
2022/07/17 05:58:56;;;;;;;12.80;5.35;;;;;;;;;;5047696;28;20644;-65
2022/07/17 06:01:22;;;;;;;12.85;5.60;;;;;;;;;;5049992;28;20089;-64
2022/07/17 06:03:48;;;;;;;11.30;5.60;;;;;;;;;;5048993;28;20540;-65
2022/07/17 06:06:14;;;;;;;13.40;5.60;;;;;;;;;;5054064;28;20032;-64
2022/07/17 06:08:41;;;;;;;13.25;5.85;;;;;;;;;;5032282;28;20074;-64
2022/07/17 06:11:07;;;;;;;12.70;5.45;;;;;;;;;;5049851;28;20060;-65
2022/07/17 06:13:33;;;;;;;9.35;5.30;;;;;;;;;;5032844;28;20062;-65
2022/07/17 06:15:59;;;;;;;8.65;4.65;;;;;;;;;;5046290;28;20861;-64
2022/07/17 06:18:26;;;;;;;10.13;5.13;;;;;;;;;;5048010;28;20033;-64
2022/07/17 06:20:52;;;;;;;9.38;4.60;;;;;;;;;;5044939;28;20046;-66
2022/07/17 06:23:18;;;;;;;11.05;4.65;;;;;;;;;;5054589;28;20028;-65
2022/07/17 06:25:45;;;;;;;11.88;4.95;;;;;;;;;;5045759;28;20032;-66
2022/07/17 06:28:11;;;;;;;9.10;4.60;;;;;;;;;;5031989;28;20067;-65
2022/07/17 06:30:37;;;;;;;10.77;5.22;;;;;;;;;;5054398;28;20505;-65
2022/07/17 06:33:03;;;;;;;11.35;5.03;;;;;;;;;;5046740;28;20028;-64
2022/07/17 06:35:30;;;;;;;12.63;5.00;;;;;;;;;;5033072;28;20024;-65
2022/07/17 06:37:57;;;;;;;12.90;4.88;;;;;;;;;;5047144;28;20435;-65
2022/07/17 06:40:23;;;;;;;14.02;5.70;;;;;;;;;;5048041;28;20021;-64
2022/07/17 06:42:49;;;;;;;11.85;5.13;;;;;;;;;;5047443;28;20067;-65
2022/07/17 06:45:15;;;;;;;13.40;5.22;;;;;;;;;;5028147;28;20054;-65
2022/07/17 06:47:41;;;;;;;12.80;4.93;;;;;;;;;;5043254;28;20063;-65
2022/07/17 06:50:08;;;;;;;12.02;5.05;;;;;;;;;;5050686;28;20561;-64
2022/07/17 06:52:34;;;;;;;11.77;5.63;;;;;;;;;;5048352;28;20488;-65
2022/07/17 06:55:00;;;;;;;13.57;5.95;;;;;;;;;;5044838;28;21884;-65
2022/07/17 06:57:27;;;;;;;13.48;5.40;;;;;;;;;;5027004;28;20040;-65
2022/07/17 06:59:53;;;;;;;12.85;5.18;;;;;;;;;;5045077;28;20044;-65
2022/07/17 07:02:19;;;;;;;14.02;5.65;;;;;;;;;;5029532;28;20446;-64
2022/07/17 07:04:45;;;;;;;10.50;5.05;;;;;;;;;;5046552;28;20523;-64
2022/07/17 07:07:11;;;;;;;11.48;4.95;;;;;;;;;;5032812;28;20403;-66
2022/07/17 07:09:38;;;;;;;16.77;5.45;;;;;;;;;;5035804;28;20362;-64
2022/07/17 07:12:04;;;;;;;15.55;5.93;;;;;;;;;;5051078;28;20111;-66
2022/07/17 07:14:30;;;;;;;10.25;5.40;;;;;;;;;;5053056;28;20516;-65
2022/07/17 07:16:56;;;;;;;13.77;5.53;;;;;;;;;;5028014;28;20566;-66
2022/07/17 07:19:23;;;;;;;12.85;5.55;;;;;;;;;;5049710;28;20392;-65
2022/07/17 07:21:49;;;;;;;10.25;5.50;;;;;;;;;;5046127;28;20024;-65
2022/07/17 07:24:15;;;;;;;11.18;5.20;;;;;;;;;;5044210;28;20020;-66
2022/07/17 07:26:41;;;;;;;10.98;5.15;;;;;;;;;;5046771;28;20641;-66
2022/07/17 07:29:07;;;;;;;11.63;5.75;;;;;;;;;;5048523;28;20021;-64
2022/07/17 07:31:33;;;;;;;10.73;5.55;;;;;;;;;;5032528;28;20037;-64
2022/07/17 07:33:59;;;;;;;10.85;5.10;;;;;;;;;;5050027;28;20774;-64
2022/07/17 07:36:26;;;;;;;10.50;5.28;;;;;;;;;;5032956;28;20039;-64
2022/07/17 07:38:52;;;;;;;11.30;5.43;;;;;;;;;;5047067;28;20031;-65
2022/07/17 07:41:18;;;;;;;12.63;4.70;;;;;;;;;;5032969;28;20040;-64
2022/07/17 07:43:44;;;;;;;8.68;4.82;;;;;;;;;;5023790;28;20527;-65
2022/07/17 07:46:10;;;;;;;9.90;4.78;;;;;;;;;;5042577;28;20213;-65
2022/07/17 07:48:36;;;;;;;8.25;4.20;;;;;;;;;;5046512;28;20226;-65
2022/07/17 07:51:02;;;;;;;8.10;4.10;;;;;;;;;;5044384;28;20139;-65
2022/07/17 07:53:28;;;;;;;9.10;4.07;;;;;;;;;;5028569;28;20028;-65
2022/07/17 07:55:54;;;;;;;8.18;3.90;;;;;;;;;;5042598;28;20031;-66
2022/07/17 07:58:21;;;;;;;7.50;3.53;;;;;;;;;;5045771;28;20473;-65
2022/07/17 08:00:47;;;;;;;9.98;4.05;;;;;;;;;;5027208;28;20454;-65
2022/07/17 08:03:13;;;;;;;7.80;3.63;;;;;;;;;;5029380;28;21253;-64
2022/07/17 08:05:39;;;;;;;7.47;3.15;;;;;;;;;;5030744;28;20047;-65
2022/07/17 08:08:06;;;;;;;7.47;3.40;;;;;;;;;;5042819;28;20032;-65
2022/07/17 08:10:32;;;;;;;8.77;3.78;;;;;;;;;;5044681;28;20593;-66
2022/07/17 08:12:58;;;;;;;9.85;3.63;;;;;;;;;;5038431;28;20024;-65
2022/07/17 08:15:24;;;;;;;7.47;3.40;;;;;;;;;;5041527;28;20056;-64
2022/07/17 08:17:51;;;;;;;8.98;3.50;;;;;;;;;;5041226;28;20047;-65
2022/07/17 08:20:18;;;;;;;8.57;3.40;;;;;;;;;;5050828;28;20036;-65
2022/07/17 08:22:45;;;;;;;8.07;3.70;;;;;;;;;;5044587;28;20037;-66
2022/07/17 08:25:11;;;;;;;8.20;3.95;;;;;;;;;;5033736;28;20059;-65
2022/07/17 08:27:38;;;;;;;9.32;3.88;;;;;;;;;;5048766;28;20103;-65
2022/07/17 08:30:05;;;;;;;8.88;3.88;;;;;;;;;;5044653;28;20518;-63
2022/07/17 08:32:31;;;;;;;8.15;4.05;;;;;;;;;;5043878;28;20035;-65
2022/07/17 08:34:57;;;;;;;8.60;3.85;;;;;;;;;;5046584;28;20036;-65
2022/07/17 08:37:24;;;;;;;7.88;3.75;;;;;;;;;;5049290;28;20452;-65
2022/07/17 08:39:50;;;;;;;8.68;4.25;;;;;;;;;;5045143;28;20035;-65
2022/07/17 08:42:16;;;;;;;13.05;4.63;;;;;;;;;;5049881;28;20308;-64
2022/07/17 08:44:43;;;;;;;9.27;4.15;;;;;;;;;;5046440;28;20031;-66
2022/07/17 08:47:11;;;;;;;9.15;4.22;;;;;;;;;;5048670;28;20028;-66
2022/07/17 08:49:41;;;;;;;8.80;4.10;;;;;;;;;;5027116;28;20044;-65
2022/07/17 08:52:07;;;;;;;9.63;3.83;;;;;;;;;;5027814;28;20079;-66
2022/07/17 08:54:33;;;;;;;8.55;4.13;;;;;;;;;;5027795;28;20147;-66
2022/07/17 08:57:00;;;;;;;8.45;4.18;;;;;;;;;;5026936;28;20174;-64
2022/07/17 08:59:26;;;;;;;8.70;4.40;;;;;;;;;;5026830;28;20024;-67
2022/07/17 09:01:52;;;;;;;10.70;4.20;;;;;;;;;;5026610;28;20037;-64
2022/07/17 09:04:18;;;;;;;8.02;3.92;;;;;;;;;;5026723;28;20781;-64
2022/07/17 09:06:44;;;;;;;8.60;3.95;;;;;;;;;;5023165;28;20064;-65
2022/07/17 09:09:11;;;;;;;9.82;4.00;;;;;;;;;;5028094;28;20070;-65
2022/07/17 09:11:48;;;;;;;7.90;4.45;;;;;;;;;;5028285;28;20028;-65
2022/07/17 09:14:15;;;;;;;9.10;4.68;;;;;;;;;;5026015;28;20032;-66
2022/07/17 09:16:51;;;;;;;9.32;4.30;;;;;;;;;;5026092;28;20025;-65
2022/07/17 09:19:27;;;;;;;9.73;4.57;;;;;;;;;;5024555;28;20590;-65
2022/07/17 09:22:04;;;;;;;9.82;4.75;;;;;;;;;;5024631;28;20064;-66
2022/07/17 09:24:41;;;;;;;10.32;5.72;;;;;;;;;;5024171;28;20071;-66
2022/07/17 09:27:07;;;;;;;8.15;5.10;;;;;;;;;;5026709;28;20123;-65
2022/07/17 09:29:33;;;;;;;8.68;4.88;;;;;;;;;;5026150;28;20063;-66
2022/07/17 09:31:59;;;;;;;9.30;5.47;;;;;;;;;;5028281;28;20036;-66
2022/07/17 09:34:26;;;;;;;9.13;5.47;;;;;;;;;;5027891;28;20024;-65
2022/07/17 09:37:00;;;;;;;10.70;5.53;;;;;;;;;;5024286;28;20236;-66
2022/07/17 09:39:36;;;;;;;11.30;5.63;;;;;;;;;;5029994;28;20036;-65
2022/07/17 09:42:02;;;;;;;12.10;6.05;;;;;;;;;;5022424;28;20515;-65
2022/07/17 09:44:28;;;;;;;9.68;6.00;;;;;;;;;;5027923;28;20029;-65
2022/07/17 09:46:55;;;;;;;10.68;5.30;;;;;;;;;;5023552;28;20716;-66
2022/07/17 09:49:24;;;;;;;8.45;5.10;;;;;;;;;;5038167;28;20052;-65
2022/07/17 09:51:50;;;;;;;11.00;5.80;;;;;;;;;;5046046;28;20434;-66
2022/07/17 09:54:19;;;;;;;11.60;6.38;;;;;;;;;;5048201;28;20757;-64
2022/07/17 09:56:47;;;;;;;10.70;5.82;;;;;;;;;;5044844;28;20024;-66
2022/07/17 09:59:13;;;;;;;12.63;5.88;;;;;;;;;;5047078;28;20032;-66
2022/07/17 10:01:41;;;;;;;9.63;5.75;;;;;;;;;;5044826;28;20032;-65
2022/07/17 10:04:07;;;;;;;11.02;6.15;;;;;;;;;;5051240;28;20533;-64
2022/07/17 10:06:33;;;;;;;10.20;6.00;;;;;;;;;;5028472;28;20036;-65
2022/07/17 10:09:00;;;;;;;9.05;6.00;;;;;;;;;;5046222;28;20267;-64
2022/07/17 10:11:30;;;;;;;10.77;6.78;;;;;;;;;;5045449;28;20508;-64
2022/07/17 10:13:57;;;;;;;11.32;6.57;;;;;;;;;;5044589;28;20031;-65
2022/07/17 10:16:27;;;;;;;8.63;5.40;;;;;;;;;;5050175;28;20510;-65
2022/07/17 10:18:55;;;;;;;9.95;6.20;;;;;;;;;;5026821;28;20507;-66
2022/07/17 10:21:21;;;;;;;11.95;6.03;;;;;;;;;;5053290;28;20028;-65
2022/07/17 10:23:53;;;;;;;11.30;5.95;;;;;;;;;;5046006;28;20547;-66
2022/07/17 10:26:32;;;;;;;11.15;6.40;;;;;;;;;;5051952;28;20031;-66
2022/07/17 10:28:58;;;;;;;10.23;5.82;;;;;;;;;;5049356;28;20540;-66
2022/07/17 10:31:29;;;;;;;10.40;6.68;;;;;;;;;;5031263;28;20171;-66
2022/07/17 10:34:05;;;;;;;9.40;5.80;;;;;;;;;;5047753;28;20055;-66
2022/07/17 10:36:38;;;;;;;8.65;5.47;;;;;;;;;;5049145;28;20070;-67
2022/07/17 10:39:12;;;;;;;11.98;5.90;;;;;;;;;;5046773;28;20063;-66
2022/07/17 10:41:39;;;;;;;10.23;6.10;;;;;;;;;;5028416;28;20236;-66
2022/07/17 10:44:05;;;;;;;11.32;5.80;;;;;;;;;;5033177;28;20032;-65
2022/07/17 10:46:31;;;;;;;9.23;5.80;;;;;;;;;;5046469;28;20063;-67
2022/07/17 10:48:58;;;;;;;9.73;5.63;;;;;;;;;;5042338;28;20638;-66
2022/07/17 10:51:25;;;;;;;10.57;5.35;;;;;;;;;;5047456;28;20847;-66
2022/07/17 10:53:51;;;;;;;10.52;5.47;;;;;;;;;;5044876;28;20051;-66
2022/07/17 10:56:17;;;;;;;8.73;5.03;;;;;;;;;;5050960;28;20028;-66
2022/07/17 10:58:45;;;;;;;10.35;5.95;;;;;;;;;;5047877;28;20090;-66
2022/07/17 11:01:12;;;;;;;10.35;5.63;;;;;;;;;;5049663;28;20032;-66
2022/07/17 11:03:59;;;;;;;8.98;5.68;;;;;;;;;;5051384;28;20046;-68
2022/07/17 11:06:32;;;;;;;10.93;5.85;;;;;;;;;;5051826;28;20123;-66
2022/07/17 11:08:59;;;;;;;11.95;5.90;;;;;;;;;;5046358;28;20503;-67
2022/07/17 11:11:55;;;;;;;9.88;6.15;;;;;;;;;;5045823;28;20379;-66
2022/07/17 11:14:22;;;;;;;12.88;5.88;;;;;;;;;;4949073;28;20053;-66
2022/07/17 11:16:48;;;;;;;10.63;5.68;;;;;;;;;;4945269;28;20046;-66
2022/07/17 11:19:44;;;;;;;10.43;5.57;;;;;;;;;;4947251;28;20046;-66
2022/07/17 11:22:12;;;;;;;8.80;5.55;;;;;;;;;;4947038;28;20080;-65
2022/07/17 11:24:44;;;;;;;14.85;5.10;;;;;;;;;;4950500;28;20046;-65
2022/07/17 11:27:13;;;;;;;10.02;5.47;;;;;;;;;;4951733;28;20039;-65
2022/07/17 11:29:40;;;;;;;9.18;5.30;;;;;;;;;;4948015;28;20593;-65
2022/07/17 11:32:06;;;;;;;9.05;5.30;;;;;;;;;;4949256;28;20038;-66
2022/07/17 11:34:32;;;;;;;9.07;5.07;;;;;;;;;;4952813;28;20134;-67
2022/07/17 11:37:00;;;;;;;10.07;5.55;;;;;;;;;;4948246;28;20615;-66
2022/07/17 11:39:26;;;;;;;9.85;5.57;;;;;;;;;;4948270;28;20038;-65
2022/07/17 11:41:53;;;;;;;7.85;4.63;;;;;;;;;;4946214;28;20826;-65
2022/07/17 11:44:20;;;;;;;9.18;5.00;;;;;;;;;;4947651;28;20046;-65
2022/07/17 11:46:47;;;;;;;13.45;4.78;;;;;;;;;;4947554;28;20042;-65
2022/07/17 11:49:28;;;;;;;9.30;4.72;;;;;;;;;;4948118;28;20443;-65
2022/07/17 11:51:58;;;;;;;7.80;4.75;;;;;;;;;;5024109;28;20043;-65
2022/07/17 11:54:25;;;;;;;7.97;4.30;;;;;;;;;;5029885;28;20628;-65
2022/07/17 11:56:53;;;;;;;9.68;4.60;;;;;;;;;;5025441;28;20450;-66
2022/07/17 11:59:28;;;;;;;7.40;4.18;;;;;;;;;;5034118;28;20865;-66
2022/07/17 12:01:56;;;;;;;10.73;4.63;;;;;;;;;;5041472;28;20123;-66
2022/07/17 12:04:22;;;;;;;8.00;4.20;;;;;;;;;;5052410;28;20036;-66
2022/07/17 12:07:09;;;;;;;8.93;4.50;;;;;;;;;;5042078;28;20559;-66
2022/07/17 12:09:35;;;;;;;7.43;4.30;;;;;;;;;;5046146;28;20251;-67
2022/07/17 12:12:01;;;;;;;7.80;4.30;;;;;;;;;;5044774;28;20722;-66
2022/07/17 12:14:29;;;;;;;9.88;4.40;;;;;;;;;;5049552;28;20033;-64
2022/07/17 12:16:57;;;;;;;10.07;4.53;;;;;;;;;;5045435;28;20396;-66
2022/07/17 12:19:24;;;;;;;8.57;4.70;;;;;;;;;;5048617;28;20039;-66
2022/07/17 12:21:50;;;;;;;9.95;4.80;;;;;;;;;;5047369;28;20575;-66
2022/07/17 12:24:21;;;;;;;10.00;4.63;;;;;;;;;;5047854;28;20381;-65
2022/07/17 12:26:47;;;;;;;9.45;4.03;;;;;;;;;;5047802;28;20029;-66
2022/07/17 12:29:13;;;;;;;8.80;4.05;;;;;;;;;;5046979;28;20327;-67
2022/07/17 12:31:39;;;;;;;9.73;3.90;;;;;;;;;;5050044;28;20024;-66
2022/07/17 12:34:05;;;;;;;7.45;3.70;;;;;;;;;;5045824;28;20032;-66
2022/07/17 12:36:31;;;;;;;10.23;3.55;;;;;;;;;;5031687;28;20537;-67
2022/07/17 12:38:58;;;;;;;8.07;3.78;;;;;;;;;;5022659;28;20090;-67
2022/07/17 12:41:24;;;;;;;7.82;3.65;;;;;;;;;;5028813;28;20431;-66
2022/07/17 12:43:50;;;;;;;7.63;3.80;;;;;;;;;;5020142;28;20067;-66
2022/07/17 12:46:16;;;;;;;7.68;3.60;;;;;;;;;;5031339;28;20563;-66
2022/07/17 12:48:43;;;;;;;7.30;3.20;;;;;;;;;;5043024;28;20053;-66
2022/07/17 12:51:10;;;;;;;8.82;3.58;;;;;;;;;;5048481;28;20047;-66
2022/07/17 12:53:36;;;;;;;7.97;3.30;;;;;;;;;;5048504;28;20032;-66
2022/07/17 12:56:03;;;;;;;7.45;3.45;;;;;;;;;;5042585;28;20016;-66
2022/07/17 12:58:30;;;;;;;7.97;3.42;;;;;;;;;;5047455;28;20036;-66
2022/07/17 13:00:56;;;;;;;9.27;3.60;;;;;;;;;;5037976;28;20068;-65
2022/07/17 13:03:22;;;;;;;8.80;3.20;;;;;;;;;;5045660;28;20040;-66
2022/07/17 13:05:48;;;;;;;6.35;2.85;;;;;;;;;;5043187;28;20028;-66
2022/07/17 13:08:14;;;;;;;6.22;3.00;;;;;;;;;;5028568;28;20623;-66
2022/07/17 13:10:41;;;;;;;8.57;3.22;;;;;;;;;;5046816;28;20031;-65
2022/07/17 13:13:07;;;;;;;7.65;3.30;;;;;;;;;;5045315;28;20555;-66
2022/07/17 13:15:33;;;;;;;6.25;3.00;;;;;;;;;;5044587;28;20028;-66
2022/07/17 13:18:00;;;;;;;6.78;3.15;;;;;;;;;;5041869;28;20445;-65
2022/07/17 13:20:26;;;;;;;7.47;3.10;;;;;;;;;;5043948;28;20070;-66
2022/07/17 13:22:52;;;;;;;6.00;2.53;;;;;;;;;;5023314;28;20332;-65
2022/07/17 13:25:19;;;;;;;6.88;3.00;;;;;;;;;;5026427;28;20040;-66
2022/07/17 13:27:45;;;;;;;9.15;3.22;;;;;;;;;;5036277;28;20043;-65
2022/07/17 13:30:11;;;;;;;10.40;3.00;;;;;;;;;;5022072;28;20473;-65
2022/07/17 13:32:37;;;;;;;7.78;3.00;;;;;;;;;;5024508;28;20155;-65
2022/07/17 13:35:04;;;;;;;7.13;2.65;;;;;;;;;;5038405;28;20050;-67
2022/07/17 13:37:30;;;;;;;6.35;2.83;;;;;;;;;;5024071;28;20047;-66
2022/07/17 13:39:56;;;;;;;5.72;2.72;;;;;;;;;;5037888;28;20140;-65
2022/07/17 13:42:22;;;;;;;6.82;3.10;;;;;;;;;;5044288;28;22558;-66
2022/07/17 13:44:48;;;;;;;8.75;2.70;;;;;;;;;;5043826;28;20245;-66
2022/07/17 13:47:14;;;;;;;7.68;2.78;;;;;;;;;;5047480;28;20150;-66
2022/07/17 13:49:40;;;;;;;5.80;2.58;;;;;;;;;;5044352;28;20049;-70
2022/07/17 13:52:06;;;;;;;6.88;2.78;;;;;;;;;;5024772;28;20463;-67
2022/07/17 13:54:32;;;;;;;7.15;2.40;;;;;;;;;;5049132;28;20028;-68
2022/07/17 13:56:59;;;;;;;7.65;2.53;;;;;;;;;;5043888;28;20025;-67
2022/07/17 13:59:26;;;;;;;8.32;2.70;;;;;;;;;;5031169;28;20028;-64
2022/07/17 14:01:52;;;;;;;6.85;2.80;;;;;;;;;;5047107;28;20044;-64
2022/07/17 14:04:18;;;;;;;7.07;2.65;;;;;;;;;;5048187;28;20123;-66
2022/07/17 14:06:45;;;;;;;8.38;2.58;;;;;;;;;;5045597;28;20737;-65
2022/07/17 14:09:11;;;;;;;6.40;2.72;;;;;;;;;;5030755;28;20037;-66
2022/07/17 14:11:37;;;;;;;6.80;2.47;;;;;;;;;;5043881;28;20109;-66
2022/07/17 14:14:04;;;;;;;7.00;2.83;;;;;;;;;;5026782;28;20541;-64
2022/07/17 14:16:30;;;;;;;8.95;2.45;;;;;;;;;;5050300;28;20035;-64
2022/07/17 14:19:00;;;;;;;6.93;2.85;;;;;;;;;;5026309;28;20072;-66
2022/07/17 14:21:30;;;;;;;5.72;2.50;;;;;;;;;;5025735;28;20032;-66
2022/07/17 14:23:56;;;;;;;5.88;2.47;;;;;;;;;;5046682;28;20034;-65
2022/07/17 14:26:22;;;;;;;5.90;2.58;;;;;;;;;;5047011;28;20089;-64
2022/07/17 14:28:49;;;;;;;8.77;2.60;;;;;;;;;;5047170;28;20331;-64
2022/07/17 14:31:16;;;;;;;10.00;2.75;;;;;;;;;;5050008;28;20029;-66
2022/07/17 14:33:42;;;;;;;7.50;2.65;;;;;;;;;;5048205;28;20024;-64